Time;durP1;ratioP1;P1;durP2;ratioP2;P2;SDS_P1;SDS_P2;PMS_P1;PMS_P2;Temp;Humidity;BMP_temperature;BMP_pressure;BME280_temperature;BME280_humidity;BME280_pressure;Samples;Min_cycle;Max_cycle;Signal;HPM_P1;HPM_P2
2024/01/12 00:04:02;;;;;;;;;;;;;;;-6.27;84.63;97742.66;10370971;28;20040;-47
2024/01/12 00:09:01;;;;;;;146.33;72.57;;;;;;;-6.29;84.84;97737.53;10368736;28;19918;-48
2024/01/12 00:14:00;;;;;;;;;;;;;;;-6.20;84.38;97748.19;10369601;28;20025;-48
2024/01/12 00:18:58;;;;;;;165.63;77.60;;;;;;;-6.39;84.15;97720.91;10365906;28;19952;-47
2024/01/12 00:23:57;;;;;;;;;;;;;;;-6.13;84.18;97749.47;10366352;28;20047;-48
2024/01/12 00:28:56;;;;;;;131.60;66.20;;;;;;;-6.31;84.35;97750.06;10367453;28;20010;-47
2024/01/12 00:33:55;;;;;;;;;;;;;;;-6.21;84.55;97765.81;10367987;28;20033;-49
2024/01/12 00:38:54;;;;;;;130.23;65.13;;;;;;;-6.21;84.85;97735.50;10366444;28;19986;-48
2024/01/12 00:43:53;;;;;;;;;;;;;;;-6.11;84.36;97747.91;10367685;28;20027;-48
2024/01/12 00:48:51;;;;;;;203.20;93.03;;;;;;;-6.61;84.77;97726.22;10365382;28;19920;-48
2024/01/12 00:53:51;;;;;;;190.52;90.22;;;;;;;-6.68;84.61;97745.94;10362540;28;20036;-47
2024/01/12 00:58:50;;;;;;;99.18;53.92;;;;;;;-6.97;84.47;97707.06;10366109;28;20063;-48
2024/01/12 01:03:48;;;;;;;;;;;;;;;-6.95;84.40;97750.91;10366367;28;20110;-49
2024/01/12 01:08:48;;;;;;;91.17;46.67;;;;;;;-8.08;83.77;97518.31;10366084;28;19912;-46
2024/01/12 01:13:47;;;;;;;96.40;46.67;;;;;;;-8.08;83.47;97507.38;10366602;28;20060;-49
2024/01/12 01:18:46;;;;;;;98.15;49.25;;;;;;;-6.72;83.62;97710.38;10366141;28;20688;-49
2024/01/12 01:23:45;;;;;;;;;;;;;;;-6.73;83.37;97718.75;10363996;28;20487;-46
2024/01/12 01:28:43;;;;;;;130.90;62.50;;;;;;;-6.79;83.80;97703.19;10361410;28;21301;-47
2024/01/12 01:33:42;;;;;;;101.97;55.45;;;;;;;-7.03;83.61;97692.41;10363362;28;20103;-47
2024/01/12 01:38:41;;;;;;;102.82;48.40;;;;;;;-7.09;83.69;97688.59;10365521;28;20021;-47
2024/01/12 01:43:41;;;;;;;106.93;54.60;;;;;;;-7.12;84.32;97674.16;10363894;28;20036;-47
2024/01/12 01:48:40;;;;;;;102.80;53.50;;;;;;;-6.95;83.94;97685.34;10362730;28;20068;-46
2024/01/12 01:53:39;;;;;;;114.97;56.63;;;;;;;-6.99;83.00;97660.72;10363534;28;20060;-47
2024/01/12 01:58:41;;;;;;;101.95;51.72;;;;;;;-7.12;83.56;97630.41;10363599;28;20083;-47
2024/01/12 02:03:41;;;;;;;126.03;62.47;;;;;;;-6.68;82.78;97692.94;10361036;28;20638;-47
2024/01/12 02:08:40;;;;;;;134.05;66.53;;;;;;;-6.80;82.73;97665.28;10357702;28;20068;-47
2024/01/12 02:13:39;;;;;;;161.20;77.05;;;;;;;-6.72;83.16;97697.78;10357700;28;20557;-47
2024/01/12 02:18:38;;;;;;;;;;;;;;;-6.67;83.20;97712.34;10361434;28;20522;-49
2024/01/12 02:23:37;;;;;;;141.47;66.47;;;;;;;-6.77;83.27;97673.91;10360304;28;20007;-48
2024/01/12 02:28:36;;;;;;;;;;;;;;;-6.42;83.05;97715.66;10358689;28;20021;-47
2024/01/12 02:33:35;;;;;;;131.03;62.70;;;;;;;-7.56;82.33;97515.81;10360826;28;21309;-48
2024/01/12 02:38:35;;;;;;;108.43;56.20;;;;;;;-6.61;83.10;97731.28;10360260;28;20864;-47
2024/01/12 02:43:34;;;;;;;118.82;57.17;;;;;;;-6.76;82.90;97698.38;10358757;28;20060;-49
2024/01/12 02:48:32;;;;;;;;;;;;;;;-6.54;82.66;97719.94;10360743;28;20029;-46
2024/01/12 02:53:32;;;;;;;99.13;52.33;;;;;;;-6.58;82.90;97688.56;10360135;28;20457;-47
2024/01/12 02:58:31;;;;;;;128.52;62.92;;;;;;;-6.63;82.77;97658.78;10358401;28;20060;-46
2024/01/12 03:03:30;;;;;;;;;;;;;;;-6.34;82.70;97719.56;10358543;28;20029;-47
2024/01/12 03:08:29;;;;;;;137.07;67.93;;;;;;;-6.46;82.10;97693.53;10360485;28;19912;-48
2024/01/12 03:13:28;;;;;;;161.82;78.28;;;;;;;-6.62;82.32;97671.50;10360263;28;20025;-47
2024/01/12 03:18:27;;;;;;;173.70;88.78;;;;;;;-6.40;82.82;97677.91;10358572;28;20060;-49
2024/01/12 03:23:26;;;;;;;141.85;74.07;;;;;;;-6.25;82.56;97678.00;10356796;28;20119;-48
2024/01/12 03:28:25;;;;;;;;;;;;;;;-6.10;82.64;97705.09;10357051;28;20116;-47
2024/01/12 03:33:24;;;;;;;97.07;52.17;;;;;;;-6.12;83.26;97678.00;10363316;28;19979;-49
2024/01/12 03:38:23;;;;;;;;;;;;;;;-6.02;81.89;97687.88;10359361;28;20045;-48
2024/01/12 03:43:22;;;;;;;82.60;46.17;;;;;;;-6.15;81.87;97658.47;10359857;28;20000;-47
2024/01/12 03:48:21;;;;;;;;;;;;;;;-5.90;82.64;97688.63;10359254;28;20029;-47
2024/01/12 03:53:20;;;;;;;78.10;41.40;;;;;;;-5.97;82.30;97673.88;10360484;28;19927;-47
2024/01/12 03:58:19;;;;;;;;;;;;;;;-5.71;83.02;97685.56;10359833;28;20138;-47
2024/01/12 04:03:18;;;;;;;88.90;46.88;;;;;;;-5.69;82.19;97684.00;10358366;28;19916;-48
2024/01/12 04:08:16;;;;;;;;;;;;;;;-5.56;82.42;97685.63;10358290;28;20035;-48
2024/01/12 04:13:15;;;;;;;98.63;51.17;;;;;;;-5.59;82.39;97652.59;10358236;28;20002;-48
2024/01/12 04:18:14;;;;;;;;;;;;;;;-5.54;81.58;97679.03;10360423;28;20059;-46
2024/01/12 04:23:13;;;;;;;74.80;41.47;;;;;;;-5.64;80.16;97681.75;10357925;28;19999;-48
2024/01/12 04:28:12;;;;;;;;;;;;;;;-5.98;82.49;97679.72;10358065;28;20425;-47
2024/01/12 04:33:11;;;;;;;81.05;43.17;;;;;;;-7.16;82.35;97496.59;10360184;28;19912;-47
2024/01/12 04:38:10;;;;;;;;;;;;;;;-6.04;81.76;97694.47;10365603;28;20028;-48
2024/01/12 04:43:08;;;;;;;81.77;43.67;;;;;;;-5.97;82.32;97675.53;10364727;28;20414;-48
2024/01/12 04:48:07;;;;;;;;;;;;;;;-5.79;80.45;97706.13;10364219;28;20955;-47
2024/01/12 04:53:06;;;;;;;70.97;39.17;;;;;;;-5.98;81.33;97674.66;10368241;28;20468;-47
2024/01/12 04:58:05;;;;;;;;;;;;;;;-5.78;80.52;97700.28;10364184;28;20542;-47
2024/01/12 05:03:04;;;;;;;73.10;39.20;;;;;;;-5.80;81.66;97720.41;10365035;28;20378;-47
2024/01/12 05:08:03;;;;;;;65.65;37.60;;;;;;;-5.92;81.17;97700.31;10364171;28;20111;-46
2024/01/12 05:13:02;;;;;;;75.15;41.10;;;;;;;-6.09;81.55;97675.66;10361826;28;20120;-48
2024/01/12 05:18:01;;;;;;;;;;;;;;;-5.75;81.13;97733.34;10379777;28;20065;-47
2024/01/12 05:23:00;;;;;;;76.53;42.23;;;;;;;-5.86;80.57;97745.28;10364665;28;20013;-48
2024/01/12 05:27:59;;;;;;;;;;;;;;;-6.07;81.03;97744.81;10362781;28;20033;-47
2024/01/12 05:32:58;;;;;;;85.90;48.05;;;;;;;-6.42;81.88;97718.19;10363352;28;19964;-48
2024/01/12 05:37:56;;;;;;;;;;;;;;;-6.06;82.68;97745.69;10364709;28;20098;-47
2024/01/12 05:42:55;;;;;;;95.20;50.13;;;;;;;-5.95;81.63;97750.63;10363400;28;19916;-47
2024/01/12 05:47:54;;;;;;;;;;;;;;;-5.75;82.74;97758.59;10361413;28;20035;-47
2024/01/12 05:52:53;;;;;;;97.83;52.43;;;;;;;-5.80;81.80;97734.69;10364927;28;19963;-49
2024/01/12 05:57:52;;;;;;;;;;;;;;;-5.68;81.19;97750.63;10362304;28;20024;-48
2024/01/12 06:02:51;;;;;;;144.17;71.83;;;;;;;-5.86;81.08;97729.25;10362025;28;19919;-48
2024/01/12 06:07:49;;;;;;;;;;;;;;;-5.65;81.23;97762.56;10361039;28;20065;-48
2024/01/12 06:12:48;;;;;;;148.83;75.27;;;;;;;-6.17;81.63;97681.88;10361987;28;19956;-49
2024/01/12 06:17:47;;;;;;;;;;;;;;;-5.75;80.53;97753.56;10362073;28;20043;-49
2024/01/12 06:22:47;;;;;;;;;;;;;;;-5.71;81.04;97758.84;10361550;28;19964;-49
2024/01/12 06:27:46;;;;;;;243.47;118.10;;;;;;;-5.81;80.41;97760.75;10361476;28;19923;-48
2024/01/12 06:32:45;;;;;;;;;;;;;;;-5.78;80.83;97776.94;10358788;28;20035;-48
2024/01/12 06:37:43;;;;;;;287.73;151.03;;;;;;;-6.12;80.94;97753.75;10361888;28;19982;-49
2024/01/12 06:42:42;;;;;;;;;;;;;;;-5.98;81.56;97780.78;10361779;28;20033;-48
2024/01/12 06:47:43;;;;;;;232.17;114.77;;;;;;;-6.20;81.13;97706.94;10359263;28;20381;-47
2024/01/12 06:52:42;;;;;;;214.13;108.38;;;;;;;-5.90;80.83;97768.63;10358825;28;20478;-49
2024/01/12 06:57:43;;;;;;;;;;;;;;;-5.75;80.58;97781.34;10361158;28;20415;-48
2024/01/12 07:02:42;;;;;;;197.30;102.75;;;;;;;-6.26;81.63;97754.53;10358972;28;19959;-49
2024/01/12 07:07:42;;;;;;;;;;;;;;;-6.12;80.91;97806.81;10356979;28;20051;-48
2024/01/12 07:12:41;;;;;;;;;;;;;;;-5.92;81.60;97806.44;10358527;28;19954;-49
2024/01/12 07:17:40;;;;;;;162.10;92.33;;;;;;;-5.66;81.34;97814.75;10359032;28;20003;-50
2024/01/12 07:22:39;;;;;;;;;;;;;;;-5.59;80.55;97827.03;10358612;28;20045;-49
2024/01/12 07:27:37;;;;;;;236.50;126.70;;;;;;;-5.40;80.85;97838.25;10372166;28;20029;-49
2024/01/12 07:32:36;;;;;;;;;;;;;;;-5.23;80.49;97852.84;10358539;28;20075;-46
2024/01/12 07:37:35;;;;;;;278.10;146.83;;;;;;;-6.35;80.14;97621.88;10346360;28;20514;-46
2024/01/12 07:42:35;;;;;;;;;;;;;;;-4.89;81.08;97859.97;10349970;28;20033;-49
2024/01/12 07:47:33;;;;;;;163.07;89.00;;;;;;;-4.77;80.33;97859.81;10334927;28;20011;-48
2024/01/12 07:52:32;;;;;;;;;;;;;;;-4.52;81.87;97874.81;10336085;28;20043;-48
2024/01/12 07:57:31;;;;;;;115.75;63.83;;;;;;;-4.56;81.21;97824.78;10339268;28;20001;-49
2024/01/12 08:02:30;;;;;;;;;;;;;;;-4.12;81.86;97875.50;10354222;28;20123;-49
2024/01/12 08:07:29;;;;;;;80.00;46.47;;;;;;;-4.22;81.14;97843.69;10361041;28;19916;-50
2024/01/12 08:12:28;;;;;;;;;;;;;;;-3.73;81.92;97900.53;10362536;28;20132;-49
2024/01/12 08:17:26;;;;;;;84.22;49.35;;;;;;;-3.63;80.97;97883.38;10361544;28;19931;-50
2024/01/12 08:22:25;;;;;;;84.45;46.72;;;;;;;-3.41;80.89;97900.69;10350254;28;20418;-49
2024/01/12 08:27:25;;;;;;;58.95;34.45;;;;;;;-3.28;80.41;97904.75;10345785;28;20032;-51
2024/01/12 08:32:24;;;;;;;60.05;36.05;;;;;;;-3.15;80.53;97903.78;10342707;28;20152;-49
2024/01/12 08:37:23;;;;;;;59.08;32.72;;;;;;;-2.98;80.35;97886.91;10355139;28;20108;-49
2024/01/12 08:42:22;;;;;;;61.05;35.35;;;;;;;-3.24;80.03;97811.91;10346175;28;20160;-48
2024/01/12 08:47:21;;;;;;;43.92;25.95;;;;;;;-2.43;78.95;97896.56;10345962;28;20033;-46
2024/01/12 08:52:20;;;;;;;41.80;24.50;;;;;;;-2.36;79.48;97914.78;10345613;28;20098;-46
2024/01/12 08:57:19;;;;;;;42.88;26.42;;;;;;;-2.05;78.81;97923.97;10348893;28;20025;-50
2024/01/12 09:02:18;;;;;;;57.03;35.25;;;;;;;-2.13;78.35;97898.13;10360194;28;20061;-47
2024/01/12 09:07:17;;;;;;;61.88;35.00;;;;;;;-2.39;75.77;97819.69;10353120;28;20160;-47
2024/01/12 09:12:16;;;;;;;95.32;54.75;;;;;;;-1.87;77.55;97921.47;10342001;28;20047;-49
2024/01/12 09:17:15;;;;;;;96.93;56.65;;;;;;;-1.94;77.16;97939.75;10343983;28;20144;-47
2024/01/12 09:22:14;;;;;;;124.57;74.50;;;;;;;-1.71;77.92;97948.53;10343422;28;20151;-48
2024/01/12 09:27:13;;;;;;;;;;;;;;;-1.45;76.83;97955.78;10345210;28;20147;-47
2024/01/12 09:32:11;;;;;;;125.18;72.70;;;;;;;-1.45;76.13;97940.50;10344897;28;20011;-48
2024/01/12 09:37:11;;;;;;;111.13;68.57;;;;;;;-1.79;75.87;97874.41;10344480;28;20077;-48
2024/01/12 09:42:14;;;;;;;100.05;61.63;;;;;;;-1.25;75.55;97936.41;10345164;28;20120;-48
2024/01/12 09:47:13;;;;;;;126.93;73.55;;;;;;;-1.12;74.49;97935.31;10343355;28;20190;-48
2024/01/12 09:52:12;;;;;;;77.20;47.95;;;;;;;-1.00;74.48;97929.94;10348949;28;20117;-48
2024/01/12 09:57:12;;;;;;;72.35;45.58;;;;;;;-0.77;71.19;97942.84;10342944;28;20065;-49
2024/01/12 10:02:13;;;;;;;60.22;35.28;;;;;;;-0.75;68.85;97918.31;10354566;28;20123;-50
2024/01/12 10:07:12;;;;;;;48.63;29.70;;;;;;;-0.63;67.10;97917.19;10359960;28;20525;-47
2024/01/12 10:12:11;;;;;;;42.83;27.20;;;;;;;-0.41;67.55;97891.00;10365924;28;20068;-48
2024/01/12 10:17:11;;;;;;;33.53;18.52;;;;;;;-0.04;62.90;97915.56;10364112;28;20036;-47
2024/01/12 10:22:14;;;;;;;33.38;21.02;;;;;;;-0.40;61.21;97851.06;10363297;28;20068;-48
2024/01/12 10:27:13;;;;;;;26.38;15.98;;;;;;;0.05;62.05;97874.25;10363214;28;20522;-48
2024/01/12 10:32:12;;;;;;;24.48;13.00;;;;;;;0.16;59.18;97874.69;10363415;28;20525;-48
2024/01/12 10:37:12;;;;;;;28.08;16.02;;;;;;;0.38;61.41;97868.78;10362488;28;20588;-46
2024/01/12 10:42:13;;;;;;;25.65;13.88;;;;;;;0.69;60.33;97901.56;10363368;28;20076;-47
2024/01/12 10:47:17;;;;;;;21.40;13.77;;;;;;;0.75;57.68;97917.09;10361252;28;20076;-47
2024/01/12 10:52:46;;;;;;;22.15;12.98;;;;;;;0.54;56.00;97880.50;10362739;28;20100;-46
2024/01/12 10:57:45;;;;;;;23.75;14.50;;;;;;;0.75;58.97;97876.22;10361029;28;20119;-47
2024/01/12 11:02:48;;;;;;;26.08;16.35;;;;;;;1.06;57.98;97913.19;10360186;28;20068;-47
2024/01/12 11:07:48;;;;;;;27.50;16.98;;;;;;;1.01;60.04;97873.81;10361364;28;20127;-48
2024/01/12 11:12:47;;;;;;;23.05;14.68;;;;;;;0.72;58.23;97848.03;10361707;28;20056;-50
2024/01/12 11:17:46;;;;;;;;;;;;;;;1.02;57.63;97917.34;10361413;28;20467;-50
2024/01/12 11:22:47;;;;;;;28.30;17.30;;;;;;;0.58;57.14;97851.72;10361778;28;20421;-48
2024/01/12 11:27:48;;;;;;;25.88;17.75;;;;;;;1.01;57.98;97910.47;10362196;28;20060;-51
2024/01/12 11:32:48;;;;;;;23.25;14.13;;;;;;;1.18;58.67;97907.69;10365368;28;20704;-47
2024/01/12 11:38:09;;;;;;;29.65;18.60;;;;;;;1.15;57.03;97915.25;10363839;28;20060;-48
2024/01/12 11:43:14;;;;;;;20.55;12.20;;;;;;;1.43;59.30;97912.06;10375137;28;20070;-49
2024/01/12 11:48:14;;;;;;;21.75;12.80;;;;;;;1.32;57.54;97870.75;10375348;28;20929;-49
2024/01/12 11:53:13;;;;;;;25.45;15.55;;;;;;;1.62;58.27;97914.50;10374770;28;20776;-50
2024/01/12 11:58:12;;;;;;;26.90;14.55;;;;;;;1.64;57.01;97924.75;10375263;28;20705;-47
2024/01/12 12:03:11;;;;;;;28.35;15.98;;;;;;;1.35;57.34;97923.69;10374953;28;20376;-47
2024/01/12 12:08:10;;;;;;;29.40;15.68;;;;;;;1.08;57.62;97937.13;10376045;28;20052;-47
2024/01/12 12:13:10;;;;;;;29.80;18.73;;;;;;;0.74;58.50;97832.78;10374937;28;20060;-49
2024/01/12 12:18:09;;;;;;;30.70;19.48;;;;;;;1.53;58.19;97932.06;10374520;28;20064;-47
2024/01/12 12:23:08;;;;;;;29.35;18.02;;;;;;;1.31;58.37;97915.88;10374401;28;20074;-49
2024/01/12 12:28:07;;;;;;;26.45;15.50;;;;;;;1.41;57.95;97931.56;10374169;28;20477;-49
2024/01/12 12:33:08;;;;;;;28.60;16.75;;;;;;;1.36;56.71;97902.41;10373532;28;20087;-49
2024/01/12 12:38:07;;;;;;;28.63;17.92;;;;;;;-0.06;57.10;97657.00;10371545;28;20060;-47
2024/01/12 12:43:06;;;;;;;26.55;15.77;;;;;;;1.60;55.70;97934.03;10373753;28;20076;-47
2024/01/12 12:48:05;;;;;;;28.77;17.42;;;;;;;1.60;56.61;97918.69;10374059;28;20029;-47
2024/01/12 12:53:04;;;;;;;25.00;13.05;;;;;;;1.54;57.41;97934.66;10368236;28;21521;-47
2024/01/12 12:58:03;;;;;;;32.05;19.70;;;;;;;1.53;56.50;97937.16;10365471;28;20526;-48
2024/01/12 13:03:03;;;;;;;;;;;;;;;1.28;56.85;97940.47;10366071;28;20061;-49
2024/01/12 13:08:03;;;;;;;25.33;15.03;;;;;;;1.40;58.15;97942.63;10364353;28;20003;-46
2024/01/12 13:13:04;;;;;;;29.45;17.25;;;;;;;1.48;56.94;97957.44;10365438;28;20115;-47
2024/01/12 13:18:03;;;;;;;28.67;17.67;;;;;;;1.69;57.37;97924.13;10366576;28;20080;-48
2024/01/12 13:23:02;;;;;;;26.02;15.80;;;;;;;1.87;57.17;97905.13;10366131;28;20076;-49
2024/01/12 13:28:01;;;;;;;;;;;;;;;2.36;56.73;97958.03;10366970;28;20056;-47
2024/01/12 13:33:01;;;;;;;25.77;14.18;;;;;;;2.03;55.46;97927.03;10366227;28;20023;-48
2024/01/12 13:38:00;;;;;;;26.15;16.23;;;;;;;2.12;55.80;97946.13;10364364;28;20060;-47
2024/01/12 13:42:59;;;;;;;33.42;17.38;;;;;;;1.57;56.74;97938.13;10366043;28;20028;-47
2024/01/12 13:47:59;;;;;;;;;;;;;;;1.42;58.59;97954.66;10365347;28;20064;-49
2024/01/12 13:53:00;;;;;;;27.50;15.07;;;;;;;1.02;60.45;97957.34;10364434;28;19982;-47
2024/01/12 13:57:59;;;;;;;31.05;17.92;;;;;;;0.69;61.02;97922.00;10365341;28;20194;-46
2024/01/12 14:02:58;;;;;;;29.95;17.92;;;;;;;0.52;62.08;97951.06;10364554;28;20197;-47
2024/01/12 14:07:57;;;;;;;31.42;18.13;;;;;;;0.38;63.25;97965.78;10364267;28;20036;-48
2024/01/12 14:12:56;;;;;;;41.60;25.10;;;;;;;0.39;64.36;97967.56;10362267;28;20072;-47
2024/01/12 14:17:55;;;;;;;31.08;18.60;;;;;;;0.17;63.71;97975.94;10364392;28;20032;-47
2024/01/12 14:22:54;;;;;;;29.35;17.55;;;;;;;-0.06;64.67;97988.59;10363154;28;20064;-47
2024/01/12 14:27:53;;;;;;;36.00;21.23;;;;;;;-0.55;66.68;97914.16;10367349;28;20039;-48
2024/01/12 14:32:52;;;;;;;32.75;18.77;;;;;;;-0.07;67.34;97991.06;10363486;28;20032;-49
2024/01/12 14:37:51;;;;;;;;;;;;;;;-0.25;68.45;97999.66;10364056;28;20060;-47
2024/01/12 14:42:50;;;;;;;35.55;22.17;;;;;;;-0.53;68.08;97940.56;10361400;28;19948;-47
2024/01/12 14:47:49;;;;;;;35.70;21.27;;;;;;;-0.87;67.08;97913.53;10356550;28;20186;-48
2024/01/12 14:52:48;;;;;;;46.42;23.88;;;;;;;-0.41;68.51;98004.88;10362028;28;20040;-48
2024/01/12 14:57:49;;;;;;;40.40;23.50;;;;;;;-0.52;69.98;98017.09;10357584;28;20044;-48
2024/01/12 15:02:48;;;;;;;51.17;28.50;;;;;;;-0.62;73.03;98003.06;10361219;28;20485;-49
2024/01/12 15:07:47;;;;;;;;;;;;;;;-0.51;74.05;98029.06;10362509;28;20260;-48
2024/01/12 15:12:46;;;;;;;60.20;33.00;;;;;;;-0.75;73.29;98000.72;10360059;28;19916;-48
2024/01/12 15:17:45;;;;;;;60.67;34.85;;;;;;;-0.56;75.19;98043.25;10295767;28;20073;-50
2024/01/12 15:22:44;;;;;;;59.58;36.33;;;;;;;-0.60;73.91;98044.78;10320238;28;20085;-48
2024/01/12 15:27:44;;;;;;;57.58;29.98;;;;;;;-0.92;73.32;98017.78;10320280;28;20592;-47
2024/01/12 15:32:43;;;;;;;48.58;27.55;;;;;;;-0.95;77.09;98034.56;10320813;28;20507;-47
2024/01/12 15:37:42;;;;;;;49.75;28.33;;;;;;;-0.87;76.30;98048.56;10320740;28;20128;-48
2024/01/12 15:42:41;;;;;;;58.75;33.38;;;;;;;-0.71;76.66;98080.75;10319850;28;20063;-48
2024/01/12 15:47:40;;;;;;;64.88;37.60;;;;;;;-0.61;77.59;98085.47;10320263;28;20030;-47
2024/01/12 15:52:39;;;;;;;64.18;39.67;;;;;;;-0.62;78.24;98082.06;10319842;28;20517;-48
2024/01/12 15:57:38;;;;;;;79.70;46.10;;;;;;;-0.72;77.13;98066.25;10318774;28;20405;-46
2024/01/12 16:02:37;;;;;;;52.47;28.65;;;;;;;-0.49;77.49;98103.91;10320662;28;20025;-51
2024/01/12 16:07:36;;;;;;;68.03;37.80;;;;;;;-0.50;78.05;98075.81;10318699;28;20029;-47
2024/01/12 16:12:35;;;;;;;59.78;35.25;;;;;;;-0.39;77.12;98084.84;10318238;28;20128;-46
2024/01/12 16:17:34;;;;;;;62.95;34.95;;;;;;;-0.49;77.96;98068.22;10320630;28;20116;-47
2024/01/12 16:22:33;;;;;;;63.17;38.22;;;;;;;-0.25;77.14;98105.88;10317204;28;20057;-49
2024/01/12 16:27:32;;;;;;;58.97;34.63;;;;;;;-0.27;77.86;98117.69;10326469;28;20749;-48
2024/01/12 16:32:31;;;;;;;53.97;31.73;;;;;;;-0.66;77.38;98067.41;10328704;28;20502;-48
2024/01/12 16:37:30;;;;;;;63.75;36.30;;;;;;;-0.50;77.29;98094.53;10324251;28;20043;-47
2024/01/12 16:42:29;;;;;;;61.10;35.60;;;;;;;-0.35;78.28;98111.34;10324587;28;20033;-48
2024/01/12 16:47:28;;;;;;;50.22;30.30;;;;;;;-0.41;78.08;98112.81;10323608;28;20395;-47
2024/01/12 16:52:27;;;;;;;66.18;36.30;;;;;;;-0.91;77.02;98022.03;10323732;28;20595;-48
2024/01/12 16:57:26;;;;;;;52.78;32.63;;;;;;;-0.49;77.33;98111.56;10324532;28;20193;-47
2024/01/12 17:02:25;;;;;;;54.85;29.08;;;;;;;-0.37;77.53;98119.81;10324003;28;20029;-47
2024/01/12 17:07:24;;;;;;;57.33;31.45;;;;;;;-0.32;77.01;98121.69;10324834;28;20041;-47
2024/01/12 17:12:23;;;;;;;57.83;33.22;;;;;;;-0.26;77.17;98142.38;10323595;28;20065;-47
2024/01/12 17:17:22;;;;;;;56.50;31.40;;;;;;;-0.26;77.43;98138.16;10322248;28;20060;-47
2024/01/12 17:22:21;;;;;;;59.75;34.45;;;;;;;-0.21;76.81;98146.03;10323324;28;20056;-47
2024/01/12 17:27:20;;;;;;;69.20;38.63;;;;;;;-0.25;76.28;98133.91;10324404;28;20710;-48
2024/01/12 17:32:26;;;;;;;63.50;34.47;;;;;;;-0.40;77.18;98132.41;10324167;28;20041;-47
2024/01/12 17:37:24;;;;;;;56.80;34.05;;;;;;;-0.28;76.67;98143.97;10323424;28;20120;-48
2024/01/12 17:42:24;;;;;;;66.28;38.15;;;;;;;-0.39;76.28;98153.69;10325090;28;20025;-46
2024/01/12 17:47:23;;;;;;;88.13;47.88;;;;;;;-0.40;77.33;98159.56;10323353;28;20509;-51
2024/01/12 17:52:23;;;;;;;93.93;55.90;;;;;;;-0.40;76.96;98163.00;10317699;28;20534;-48
2024/01/12 17:57:22;;;;;;;88.68;50.05;;;;;;;-0.52;77.99;98144.56;10320752;28;20503;-48
2024/01/12 18:02:21;;;;;;;85.72;49.67;;;;;;;-0.40;77.49;98157.03;10321197;28;20451;-49
2024/01/12 18:07:20;;;;;;;95.93;55.60;;;;;;;-0.41;78.34;98150.19;10321530;28;20462;-47
2024/01/12 18:12:19;;;;;;;85.10;46.58;;;;;;;-0.33;77.37;98168.41;10322116;28;20632;-46
2024/01/12 18:17:18;;;;;;;57.38;34.63;;;;;;;-0.38;77.57;98166.50;10320869;28;20069;-48
2024/01/12 18:22:18;;;;;;;66.68;40.60;;;;;;;-0.83;77.27;98116.72;10321119;28;20427;-50
2024/01/12 18:27:19;;;;;;;75.25;42.78;;;;;;;-1.06;78.17;98106.25;10320821;28;20160;-48
2024/01/12 18:32:18;;;;;;;76.28;43.10;;;;;;;-0.93;77.49;98140.84;10322542;28;20076;-50
2024/01/12 18:37:17;;;;;;;77.47;42.97;;;;;;;-0.71;76.94;98177.59;10320966;28;20105;-50
2024/01/12 18:42:16;;;;;;;79.05;46.80;;;;;;;-1.06;76.13;98133.38;10322434;28;20035;-48
2024/01/12 18:47:15;;;;;;;47.22;24.02;;;;;;;-1.52;75.60;98123.38;10316997;28;20065;-48
2024/01/12 18:52:14;;;;;;;51.70;27.00;;;;;;;-1.45;77.03;98173.81;10318901;28;20136;-47
2024/01/12 18:57:13;;;;;;;61.80;33.70;;;;;;;-1.43;79.61;98149.31;10321248;28;20041;-49
2024/01/12 19:02:12;;;;;;;64.72;36.75;;;;;;;-1.11;79.75;98173.91;10321000;28;20035;-47
2024/01/12 19:07:11;;;;;;;65.85;35.75;;;;;;;-1.54;80.36;98107.16;10320218;28;20111;-47
2024/01/12 19:12:10;;;;;;;65.90;34.03;;;;;;;-1.03;79.88;98169.19;10321083;28;20033;-48
2024/01/12 19:17:09;;;;;;;82.65;43.55;;;;;;;-0.98;79.65;98170.28;10319631;28;20096;-48
2024/01/12 19:22:08;;;;;;;65.32;35.22;;;;;;;-0.98;78.84;98182.16;10318749;28;20038;-48
2024/01/12 19:27:07;;;;;;;61.58;31.85;;;;;;;-1.19;79.80;98170.06;10319647;28;20048;-48
2024/01/12 19:32:10;;;;;;;51.65;28.17;;;;;;;-1.10;80.32;98172.22;10319251;28;20124;-47
2024/01/12 19:37:09;;;;;;;44.72;25.02;;;;;;;-1.06;80.36;98154.63;10318318;28;20073;-50
2024/01/12 19:42:08;;;;;;;50.45;26.13;;;;;;;-1.78;80.75;98030.44;10319432;28;20044;-48
2024/01/12 19:47:07;;;;;;;49.28;24.15;;;;;;;-1.04;79.50;98144.53;10318770;28;20120;-48
2024/01/12 19:52:06;;;;;;;45.47;25.55;;;;;;;-1.35;81.01;98103.88;10318083;28;20035;-49
2024/01/12 19:57:05;;;;;;;51.53;28.27;;;;;;;-1.06;80.69;98152.09;10317762;28;20096;-49
2024/01/12 20:02:04;;;;;;;52.22;30.27;;;;;;;-1.27;80.92;98102.63;10324487;28;20045;-47
2024/01/12 20:07:03;;;;;;;;;;;;;;;-0.93;79.20;98180.72;10327066;28;20116;-47
2024/01/12 20:12:03;;;;;;;67.60;37.30;;;;;;;-1.04;78.20;98177.66;10319771;28;19956;-48
2024/01/12 20:17:02;;;;;;;70.00;37.42;;;;;;;-1.38;80.04;98141.91;10328302;28;20072;-47
2024/01/12 20:22:01;;;;;;;49.53;26.30;;;;;;;-1.38;79.96;98173.34;10326724;28;20823;-48
2024/01/12 20:27:00;;;;;;;56.28;30.88;;;;;;;-1.54;80.72;98189.50;10326906;28;20507;-49
2024/01/12 20:31:59;;;;;;;53.25;30.50;;;;;;;-1.75;80.22;98175.59;10326497;28;20111;-47
2024/01/12 20:36:58;;;;;;;72.63;39.42;;;;;;;-1.77;81.06;98175.53;10327708;28;20148;-49
2024/01/12 20:41:57;;;;;;;54.50;30.63;;;;;;;-1.80;80.50;98182.97;10327727;28;20025;-48
2024/01/12 20:46:56;;;;;;;55.10;30.20;;;;;;;-1.89;81.36;98163.03;10324694;28;20043;-46
2024/01/12 20:51:55;;;;;;;56.72;29.20;;;;;;;-1.79;80.81;98169.47;10326101;28;20037;-47
2024/01/12 20:56:54;;;;;;;64.28;32.00;;;;;;;-2.21;80.30;98105.34;10327169;28;20479;-46
2024/01/12 21:01:53;;;;;;;59.33;29.27;;;;;;;-1.89;79.63;98179.94;10327753;28;20463;-48
2024/01/12 21:06:52;;;;;;;55.92;28.05;;;;;;;-2.17;80.88;98147.94;10327329;28;20447;-49
2024/01/12 21:11:51;;;;;;;51.17;28.30;;;;;;;-2.09;80.58;98189.91;10326781;28;20434;-48
2024/01/12 21:16:50;;;;;;;55.70;29.40;;;;;;;-2.19;81.29;98174.94;10327002;28;20048;-48
2024/01/12 21:21:49;;;;;;;62.72;32.83;;;;;;;-2.14;81.84;98183.69;10325116;28;20535;-49
2024/01/12 21:26:48;;;;;;;78.07;39.10;;;;;;;-2.12;81.98;98176.16;10328018;28;20456;-48
2024/01/12 21:31:47;;;;;;;78.47;40.60;;;;;;;-2.29;81.63;98147.25;10322868;28;20391;-48
2024/01/12 21:36:46;;;;;;;75.22;39.13;;;;;;;-2.17;81.80;98170.81;10325287;28;20040;-46
2024/01/12 21:41:45;;;;;;;58.00;31.40;;;;;;;-2.59;81.88;98110.81;10326576;28;20112;-50
2024/01/12 21:46:44;;;;;;;63.80;35.42;;;;;;;-2.46;82.74;98148.84;10323671;28;20037;-47
2024/01/12 21:51:43;;;;;;;70.32;39.15;;;;;;;-2.34;83.09;98205.44;10325403;28;20132;-48
2024/01/12 21:56:42;;;;;;;89.88;48.80;;;;;;;-2.84;83.72;98134.00;10327394;28;20037;-48
2024/01/12 22:01:41;;;;;;;75.97;43.25;;;;;;;-2.89;83.39;98127.78;10324203;28;20542;-49
2024/01/12 22:06:40;;;;;;;64.15;36.05;;;;;;;-2.21;83.57;98216.31;10323857;28;20542;-48
2024/01/12 22:11:40;;;;;;;66.82;32.97;;;;;;;-2.21;83.57;98208.69;10324289;28;20507;-49
2024/01/12 22:16:39;;;;;;;96.22;50.80;;;;;;;-2.27;82.94;98177.03;10323932;28;20068;-49
2024/01/12 22:21:38;;;;;;;80.10;44.80;;;;;;;-1.95;83.31;98250.84;10323024;28;20033;-47
2024/01/12 22:26:37;;;;;;;86.85;47.22;;;;;;;-1.90;83.43;98204.50;10322949;28;20504;-48
2024/01/12 22:31:36;;;;;;;84.95;45.78;;;;;;;-1.92;82.68;98193.38;10323241;28;20120;-49
2024/01/12 22:36:36;;;;;;;87.22;45.35;;;;;;;-1.78;82.65;98194.13;10322853;28;20033;-47
2024/01/12 22:41:35;;;;;;;85.32;43.03;;;;;;;-2.08;82.97;98120.47;10320201;28;20071;-45
2024/01/12 22:46:34;;;;;;;79.32;43.75;;;;;;;-1.84;82.32;98148.03;10321803;28;20069;-46
2024/01/12 22:51:33;;;;;;;84.68;44.63;;;;;;;-2.11;82.52;98112.66;10321975;28;20084;-46
2024/01/12 22:56:32;;;;;;;82.50;46.75;;;;;;;-1.66;83.54;98177.00;10321583;28;20104;-50
2024/01/12 23:01:31;;;;;;;98.25;48.83;;;;;;;-2.36;81.79;98079.06;10320329;28;20068;-49
2024/01/12 23:06:30;;;;;;;81.70;43.15;;;;;;;-1.92;81.55;98184.88;10319273;28;20033;-47